»·PEaware :: N8068C KCRQ-KPOC

N8068C :: KCRQ-KPOC

FLIGHT INFORMATION

Flight Status: Arrived
Operator: Privately registered:
United States
More flights under this callsign
Pilot: Ryan B. (29)
Aircraft: Unknown
(LNC4)
More flights by this aircraft type
Origin: KCRQ McClellan-Palomar
United States
Destination: KPOC Brackett
United States
More flights between these airports :: More routes between these airports
Route: +OCN V23 DANAH V363 POM
File this flight plan on PilotEdge
Remarks: charts / R /
Altitude:
(Current/Filed)
60ft
Speed:
(Current/Filed)
230kts
Departed: 24-Aug-11 06:39 PM
Arrived: 24-Aug-11 07:45 PM
Distance/Time
Traveled:
63nm/1:06
Distance/Time
To Go:
Arrived

Flight Plot

Page will automatically refresh every two minutes.


Map Options




Map Legend


Flown Route
Filed Route
Departure Airport
Arrival Airport
Navaid (VOR, NDB)
Fix

Horizontal Profiles

Position Reports

Time Latitude Longitude Heading Altitude Ground
Speed
24-Aug-11 18:29 33.126532 -117.280441 66 335ft 0kts
24-Aug-11 18:30 33.126532 -117.280439 66 335ft 0kts
24-Aug-11 18:31 33.126533 -117.280437 65 335ft 0kts
24-Aug-11 18:32 33.126534 -117.280434 65 335ft 0kts
24-Aug-11 18:33 33.126545 -117.280409 62 335ft 2kts
24-Aug-11 18:34 33.128201 -117.274022 75 335ft 18kts
24-Aug-11 18:35 33.127812 -117.282771 256 345ft 117kts
24-Aug-11 18:36 33.120112 -117.326013 256 2002ft 138kts
24-Aug-11 18:37 33.112983 -117.374737 282 3528ft 157kts
24-Aug-11 18:38 33.150568 -117.395048 345 5058ft 153kts
24-Aug-11 18:39 33.190985 -117.405258 348 5974ft 158kts
24-Aug-11 18:40 33.240915 -117.418613 333 5999ft 201kts
24-Aug-11 18:41 33.283438 -117.465147 312 6001ft 213kts
24-Aug-11 18:42 33.325766 -117.516217 315 6003ft 217kts
24-Aug-11 18:43 33.369472 -117.566578 314 6001ft 217kts
24-Aug-11 18:44 33.413155 -117.617077 314 5995ft 218kts
24-Aug-11 18:45 33.456848 -117.667671 315 5999ft 218kts
24-Aug-11 18:46 33.508287 -117.703648 346 6002ft 220kts
24-Aug-11 18:47 33.569019 -117.712995 349 6000ft 220kts
24-Aug-11 18:48 33.629880 -117.723324 350 6000ft 220kts
24-Aug-11 18:49 33.690487 -117.726446 24 6000ft 223kts
24-Aug-11 18:50 33.739352 -117.679842 33 6001ft 224kts
24-Aug-11 18:51 33.791026 -117.637304 33 5997ft 224kts
24-Aug-11 18:52 33.842510 -117.594022 33 5860ft 231kts
24-Aug-11 18:53 33.897714 -117.547583 33 5119ft 247kts
24-Aug-11 18:54 33.959435 -117.530676 356 4706ft 230kts
24-Aug-11 18:55 34.023058 -117.529488 0 4035ft 223kts
24-Aug-11 18:56 34.080972 -117.525156 22 3987ft 197kts
24-Aug-11 18:58 34.081511 -117.417392 156 4015ft 168kts
24-Aug-11 18:59 34.059953 -117.450358 295 4024ft 168kts
24-Aug-11 19:00 34.078979 -117.501349 275 3999ft 167kts
24-Aug-11 19:01 34.081342 -117.559289 271 3594ft 186kts
24-Aug-11 19:02 34.084181 -117.624430 271 3174ft 185kts
24-Aug-11 19:03 34.086718 -117.682355 271 3036ft 166kts
24-Aug-11 19:04 34.089417 -117.741185 272 2119ft 183kts
24-Aug-11 19:05 34.089866 -117.802547 265 1659ft 177kts
24-Aug-11 19:06 34.058906 -117.821349 147 3290ft 138kts
24-Aug-11 19:07 34.029204 -117.780073 120 4019ft 203kts
24-Aug-11 19:08 34.001670 -117.717674 118 3998ft 207kts
24-Aug-11 19:09 33.974519 -117.656538 118 3998ft 205kts
24-Aug-11 19:10 33.947644 -117.595758 118 3977ft 204kts
24-Aug-11 19:11 33.921906 -117.534500 104 3967ft 205kts
24-Aug-11 19:12 33.935350 -117.470825 49 3984ft 205kts
24-Aug-11 19:13 33.942508 -117.412565 139 4011ft 196kts
24-Aug-11 19:14 33.904509 -117.432650 271 4018ft 176kts
24-Aug-11 19:15 33.917218 -117.487713 270 4004ft 166kts
24-Aug-11 19:16 33.921994 -117.532525 308 3989ft 166kts
24-Aug-11 19:17 33.953903 -117.514112 85 4021ft 164kts
24-Aug-11 19:18 33.952637 -117.458304 115 3983ft 167kts
24-Aug-11 19:19 33.921040 -117.465799 260 4016ft 158kts
24-Aug-11 19:20 33.918591 -117.518961 290 3986ft 164kts
24-Aug-11 19:21 33.953114 -117.512661 78 4008ft 167kts
24-Aug-11 19:22 33.954394 -117.456038 92 3999ft 170kts
24-Aug-11 19:23 33.922612 -117.444010 237 4000ft 159kts
24-Aug-11 19:24 33.916177 -117.497097 261 3997ft 163kts
24-Aug-11 19:25 33.911238 -117.552132 261 4000ft 164kts
24-Aug-11 19:26 33.908607 -117.607733 279 4002ft 168kts
24-Aug-11 19:27 33.919775 -117.663333 282 3752ft 178kts
24-Aug-11 19:28 33.932074 -117.724214 281 3038ft 187kts
24-Aug-11 19:29 33.956272 -117.770961 330 3003ft 163kts
24-Aug-11 19:30 33.997299 -117.785389 1 2713ft 162kts
24-Aug-11 19:31 34.041832 -117.786303 355 2293ft 157kts
24-Aug-11 19:32 34.075466 -117.768446 69 1736ft 121kts
24-Aug-11 19:33 34.091225 -117.780247 271 1015ft 88kts
24-Aug-11 19:34 34.094831 -117.817052 273 1814ft 121kts
24-Aug-11 19:35 34.077627 -117.839166 129 1957ft 154kts
24-Aug-11 19:36 34.070882 -117.789710 92 1941ft 136kts
24-Aug-11 19:37 34.082603 -117.761980 350 1567ft 106kts
24-Aug-11 19:38 34.091545 -117.789948 265 1188ft 119kts
24-Aug-11 19:39 34.074177 -117.777204 90 2072ft 157kts
24-Aug-11 19:40 34.090432 -117.766678 276 1311ft 101kts
24-Aug-11 19:41 34.090927 -117.786704 160 1015ft 14kts
24-Aug-11 19:42 34.089528 -117.781813 25 1015ft 4kts
24-Aug-11 19:43 34.089639 -117.781801 0 1015ft 0kts
24-Aug-11 19:44 34.089639 -117.781801 0 1015ft 0kts

Navigation Log

Ident Type
Flight plan parsing failed, navigation log unavailable